createdAt,value
2023-03-17T00:00:48.360Z,89.22
2023-03-17T00:03:25.938Z,89.40
2023-03-17T00:05:55.240Z,89.71
2023-03-17T00:08:37.206Z,89.76
2023-03-17T00:11:14.914Z,90.04
2023-03-17T00:13:44.665Z,90.08
2023-03-17T00:16:20.164Z,90.15
2023-03-17T00:18:50.510Z,90.27
2023-03-17T00:21:26.109Z,90.52
2023-03-17T00:23:55.440Z,90.54
2023-03-17T00:26:24.264Z,90.68
2023-03-17T00:28:54.784Z,90.97
2023-03-17T00:31:25.552Z,91.26
2023-03-17T00:33:55.213Z,91.55
2023-03-17T00:36:28.068Z,91.65
2023-03-17T00:38:56.417Z,91.55
2023-03-17T00:41:27.350Z,91.65
2023-03-17T00:43:55.664Z,91.69
2023-03-17T00:46:35.469Z,91.71
2023-03-17T00:49:14.313Z,91.75
2023-03-17T00:51:43.877Z,91.79
2023-03-17T00:54:13.771Z,91.83
2023-03-17T00:56:42.376Z,91.98
2023-03-17T00:59:20.647Z,92.27
2023-03-17T01:01:49.068Z,92.18
2023-03-17T01:04:17.304Z,92.22
2023-03-17T01:06:49.410Z,92.16
2023-03-17T01:09:24.251Z,92.23
2023-03-17T01:11:53.138Z,92.39
2023-03-17T01:14:21.725Z,92.34
2023-03-17T01:16:49.845Z,92.48
2023-03-17T01:19:18.098Z,92.58
2023-03-17T01:21:48.137Z,92.69
2023-03-17T01:24:16.214Z,92.67
2023-03-17T01:26:44.720Z,92.61
2023-03-17T01:29:13.929Z,92.78
2023-03-17T01:31:42.247Z,92.86
2023-03-17T01:34:11.616Z,93.04
2023-03-17T01:36:40.635Z,93.02
2023-03-17T01:39:09.392Z,93.12
2023-03-17T01:41:40.092Z,93.20
2023-03-17T01:44:17.028Z,93.15
2023-03-17T01:46:47.503Z,93.27
2023-03-17T01:49:19.471Z,93.54
2023-03-17T01:51:53.515Z,93.58
2023-03-17T01:54:24.703Z,93.66
2023-03-17T01:56:57.500Z,93.73
2023-03-17T01:59:31.763Z,93.59
2023-03-17T02:02:05.772Z,93.74
2023-03-17T02:04:34.642Z,93.89
2023-03-17T02:07:05.157Z,93.80
2023-03-17T02:09:34.347Z,93.87
2023-03-17T02:12:05.381Z,93.87
2023-03-17T02:14:34.200Z,93.95
2023-03-17T02:17:03.999Z,94.04
2023-03-17T02:19:32.090Z,94.10
2023-03-17T02:22:00.828Z,94.11
2023-03-17T02:24:41.525Z,94.11
2023-03-17T02:27:34.891Z,94.30
2023-03-17T02:30:04.948Z,94.61
2023-03-17T02:32:36.611Z,94.90
2023-03-17T02:35:07.229Z,95.07
2023-03-17T02:37:38.291Z,95.30
2023-03-17T02:40:07.902Z,95.22
2023-03-17T02:42:36.694Z,95.17
2023-03-17T02:45:06.548Z,95.12
2023-03-17T02:47:34.971Z,94.85
2023-03-17T02:50:04.857Z,94.60
2023-03-17T02:52:33.303Z,94.98
2023-03-17T02:55:01.416Z,95.19
2023-03-17T02:57:29.468Z,95.39
2023-03-17T02:59:57.626Z,95.78
2023-03-17T03:02:25.727Z,95.86
2023-03-17T03:04:54.277Z,95.91
2023-03-17T03:07:22.972Z,95.78
2023-03-17T03:09:51.327Z,95.65
2023-03-17T03:12:19.407Z,95.90
2023-03-17T03:14:47.714Z,96.03
2023-03-17T03:17:16.539Z,96.14
2023-03-17T03:19:44.979Z,96.30
2023-03-17T03:22:13.236Z,96.30
2023-03-17T03:24:41.736Z,96.20
2023-03-17T03:27:09.951Z,95.97
2023-03-17T03:29:38.368Z,95.60
2023-03-17T03:32:07.347Z,95.37
2023-03-17T03:34:35.619Z,95.34
2023-03-17T03:37:03.792Z,95.34
2023-03-17T03:39:32.003Z,95.55
2023-03-17T03:42:00.097Z,95.88
2023-03-17T03:44:28.268Z,96.09
2023-03-17T03:46:56.291Z,96.36
2023-03-17T03:49:25.608Z,96.54
2023-03-17T03:51:53.774Z,96.83
2023-03-17T03:54:22.688Z,96.82
2023-03-17T03:56:50.793Z,96.89
2023-03-17T03:59:18.966Z,96.83
2023-03-17T04:01:47.090Z,96.69
2023-03-17T04:04:15.507Z,96.57
2023-03-17T04:06:43.758Z,96.34
2023-03-17T04:09:12.730Z,95.96
2023-03-17T04:11:40.876Z,95.79
2023-03-17T04:14:09.074Z,95.61
2023-03-17T04:16:37.290Z,95.46
2023-03-17T04:19:05.424Z,95.28
2023-03-17T04:21:33.573Z,94.92
2023-03-17T04:24:01.608Z,94.67
2023-03-17T04:26:29.618Z,94.46
2023-03-17T04:28:58.652Z,94.23
2023-03-17T04:31:26.764Z,93.90
2023-03-17T04:33:54.884Z,93.91
2023-03-17T04:36:24.467Z,93.48
2023-03-17T04:38:52.790Z,93.26
2023-03-17T04:41:21.385Z,92.98
2023-03-17T04:43:49.680Z,92.86
2023-03-17T04:46:17.719Z,92.88
2023-03-17T04:48:45.782Z,92.62
2023-03-17T04:51:14.011Z,92.48
2023-03-17T04:53:42.060Z,92.36
2023-03-17T04:56:10.718Z,92.20
2023-03-17T04:58:39.832Z,92.12
2023-03-17T05:01:08.505Z,92.02
2023-03-17T05:03:36.697Z,91.79
2023-03-17T05:06:06.156Z,91.71
2023-03-17T05:08:34.420Z,91.67
2023-03-17T05:11:02.797Z,91.52
2023-03-17T05:13:31.062Z,91.52
2023-03-17T05:16:04.697Z,91.34
2023-03-17T05:18:37.261Z,91.36
2023-03-17T05:21:06.361Z,91.03
2023-03-17T05:23:35.200Z,91.12
2023-03-17T05:26:03.345Z,91.11
2023-03-17T05:28:32.489Z,91.13
2023-03-17T05:31:00.833Z,91.03
2023-03-17T05:33:29.173Z,91.16
2023-03-17T05:35:57.521Z,90.99
2023-03-17T05:38:25.892Z,90.85
2023-03-17T05:40:54.572Z,90.88
2023-03-17T05:43:22.704Z,90.90
2023-03-17T05:45:50.878Z,90.76
2023-03-17T05:48:19.148Z,90.74
2023-03-17T05:50:47.670Z,90.58
2023-03-17T05:53:16.289Z,90.56
2023-03-17T05:55:44.856Z,90.58
2023-03-17T05:58:15.594Z,90.33
2023-03-17T06:00:44.310Z,90.14
2023-03-17T06:03:12.849Z,90.08
2023-03-17T06:05:41.404Z,90.02
2023-03-17T06:08:10.327Z,89.79
2023-03-17T06:10:38.374Z,89.62
2023-03-17T06:13:06.471Z,89.33
2023-03-17T06:15:36.943Z,89.26
2023-03-17T06:18:05.863Z,89.06
2023-03-17T06:20:35.078Z,88.63
2023-03-17T06:23:05.607Z,88.50
2023-03-17T06:25:35.792Z,88.25
2023-03-17T06:28:06.487Z,88.14
2023-03-17T06:30:37.551Z,87.87
2023-03-17T06:33:08.274Z,87.32
2023-03-17T06:35:39.865Z,87.03
2023-03-17T06:38:08.125Z,86.60
2023-03-17T06:40:37.052Z,86.22
2023-03-17T06:43:05.261Z,85.79
2023-03-17T06:45:33.685Z,85.43
2023-03-17T06:48:02.321Z,85.23
2023-03-17T06:50:30.440Z,84.74
2023-03-17T06:52:58.620Z,84.55
2023-03-17T06:55:27.392Z,83.85
2023-03-17T06:57:55.675Z,83.78
2023-03-17T07:00:23.860Z,83.42
2023-03-17T07:02:52.664Z,82.66
2023-03-17T07:05:20.941Z,82.57
2023-03-17T07:07:50.139Z,82.06
2023-03-17T07:10:18.744Z,81.59
2023-03-17T07:12:47.017Z,80.97
2023-03-17T07:15:15.603Z,80.85
2023-03-17T07:17:43.648Z,80.50
2023-03-17T07:20:12.063Z,79.44
2023-03-17T07:22:40.952Z,78.42
2023-03-17T07:25:09.854Z,77.89
2023-03-17T07:27:38.500Z,76.98
2023-03-17T07:30:07.522Z,76.67
2023-03-17T07:32:36.300Z,75.61
2023-03-17T07:35:05.562Z,74.83
2023-03-17T07:37:33.892Z,72.90
2023-03-17T07:40:02.379Z,72.90
2023-03-17T07:42:30.476Z,72.59
2023-03-17T07:44:58.581Z,71.90
2023-03-17T07:47:28.983Z,71.52
2023-03-17T07:49:57.418Z,71.38
2023-03-17T07:52:25.630Z,70.05
2023-03-17T07:54:53.977Z,69.21
2023-03-17T07:57:22.453Z,68.71
2023-03-17T07:59:50.787Z,68.49
2023-03-17T08:02:19.672Z,67.28
2023-03-17T08:04:48.129Z,67.82
2023-03-17T08:07:16.498Z,67.32
2023-03-17T08:09:46.985Z,66.75
2023-03-17T08:12:15.236Z,66.32
2023-03-17T08:14:43.582Z,66.29
2023-03-17T08:17:13.604Z,66.32
2023-03-17T08:19:42.439Z,65.68
2023-03-17T08:22:10.948Z,65.73
2023-03-17T08:24:41.199Z,65.39
2023-03-17T08:27:09.650Z,64.01
2023-03-17T08:29:39.723Z,63.53
2023-03-17T08:32:08.819Z,60.99
2023-03-17T08:34:38.133Z,60.22
2023-03-17T08:37:10.040Z,60.39
2023-03-17T08:39:39.517Z,58.98
2023-03-17T08:42:08.314Z,60.09
2023-03-17T08:44:36.539Z,58.50
2023-03-17T08:47:05.799Z,58.18
2023-03-17T08:49:36.157Z,58.19
2023-03-17T08:52:04.709Z,57.31
2023-03-17T08:54:34.662Z,56.36
2023-03-17T08:57:04.127Z,56.65
2023-03-17T08:59:33.672Z,56.67
2023-03-17T09:02:01.754Z,57.25
2023-03-17T09:04:30.358Z,54.43
2023-03-17T09:07:03.647Z,52.75
2023-03-17T09:09:35.294Z,51.70
2023-03-17T09:12:06.342Z,52.12
2023-03-17T09:14:42.961Z,52.34
2023-03-17T09:17:14.497Z,51.12
2023-03-17T09:19:43.651Z,50.93
2023-03-17T09:22:14.478Z,51.48
2023-03-17T09:24:42.710Z,52.96
2023-03-17T09:27:11.200Z,52.31
2023-03-17T09:29:39.672Z,52.45
2023-03-17T09:32:08.806Z,51.55
2023-03-17T09:34:36.979Z,48.75
2023-03-17T09:37:05.190Z,48.56
2023-03-17T09:39:33.553Z,48.82
2023-03-17T09:42:19.777Z,45.98
2023-03-17T09:45:15.380Z,45.78
2023-03-17T09:47:43.476Z,44.80
2023-03-17T09:50:22.388Z,44.86
2023-03-17T09:52:52.430Z,44.65
2023-03-17T09:55:29.006Z,46.05
2023-03-17T09:58:00.778Z,46.28
2023-03-17T10:00:31.156Z,45.62
2023-03-17T10:03:00.214Z,43.00
2023-03-17T10:05:35.180Z,42.74
2023-03-17T10:08:31.774Z,43.94
2023-03-17T10:11:35.289Z,42.69
2023-03-17T10:14:03.848Z,41.10
2023-03-17T10:17:01.885Z,42.20
2023-03-17T10:19:40.737Z,42.34
2023-03-17T10:22:23.706Z,41.35
2023-03-17T10:24:57.726Z,41.32
2023-03-17T10:27:34.479Z,40.35
2023-03-17T10:30:03.654Z,41.31
2023-03-17T10:32:38.018Z,41.71
2023-03-17T10:35:07.741Z,40.45
2023-03-17T10:37:36.756Z,40.62
2023-03-17T10:40:30.610Z,40.92
2023-03-17T10:43:08.035Z,37.90
2023-03-17T10:45:44.008Z,39.00
2023-03-17T10:48:19.191Z,35.59
2023-03-17T10:50:49.541Z,36.61
2023-03-17T10:53:28.214Z,38.43
2023-03-17T10:56:25.483Z,38.75
2023-03-17T10:59:17.995Z,38.32
2023-03-17T11:01:52.250Z,37.70
2023-03-17T11:04:35.155Z,38.72
2023-03-17T11:07:15.524Z,38.07
2023-03-17T11:09:48.953Z,35.35
2023-03-17T11:12:25.678Z,34.39
2023-03-17T11:15:03.379Z,35.20
2023-03-17T11:17:38.480Z,35.85
2023-03-17T11:20:43.439Z,33.93
2023-03-17T11:23:37.528Z,32.59
2023-03-17T11:26:16.830Z,32.05
2023-03-17T11:29:05.931Z,33.06
2023-03-17T11:31:43.851Z,32.07
2023-03-17T11:34:35.471Z,31.81
2023-03-17T11:37:18.918Z,30.83
2023-03-17T11:40:04.352Z,30.77
2023-03-17T11:42:39.656Z,31.36
2023-03-17T11:45:26.720Z,32.84
2023-03-17T11:48:08.748Z,33.23
2023-03-17T11:50:49.547Z,33.50
2023-03-17T11:53:18.186Z,33.28
2023-03-17T11:56:30.823Z,32.08
2023-03-17T11:59:02.133Z,31.42
2023-03-17T12:01:42.834Z,30.70
2023-03-17T12:04:22.080Z,32.23
2023-03-17T12:06:58.004Z,31.81
2023-03-17T12:09:46.531Z,31.97
2023-03-17T12:12:22.881Z,30.44
2023-03-17T12:14:54.193Z,29.31
2023-03-17T12:17:30.459Z,28.80
2023-03-17T12:20:34.078Z,28.42
2023-03-17T12:23:21.358Z,29.80
2023-03-17T12:29:09.313Z,27.55
2023-03-17T12:31:52.856Z,29.15
2023-03-17T12:34:28.884Z,28.68
2023-03-17T12:36:59.487Z,29.73
2023-03-17T12:39:37.810Z,29.42
2023-03-17T12:42:27.451Z,30.89
2023-03-17T12:45:17.069Z,30.83
2023-03-17T12:48:06.069Z,29.07
2023-03-17T12:50:43.021Z,28.23
2023-03-17T12:53:32.845Z,28.94
2023-03-17T12:56:50.687Z,29.15
2023-03-17T12:59:26.257Z,30.17
2023-03-17T13:02:44.684Z,30.33
2023-03-17T13:05:19.816Z,29.62
2023-03-17T13:07:57.585Z,30.33
2023-03-17T13:10:48.775Z,30.63
2023-03-17T13:13:41.061Z,29.70
2023-03-17T13:16:39.545Z,29.63
2023-03-17T13:19:16.119Z,30.27
2023-03-17T13:22:14.355Z,30.26
2023-03-17T13:24:47.515Z,30.70
2023-03-17T13:27:38.844Z,29.39
2023-03-17T13:30:32.304Z,29.29
2023-03-17T13:33:31.076Z,30.23
2023-03-17T13:42:25.377Z,31.63
2023-03-17T13:45:37.732Z,31.33
2023-03-17T13:48:41.733Z,31.39
2023-03-17T13:51:26.374Z,31.87
2023-03-17T13:54:29.838Z,32.93
2023-03-17T13:57:26.797Z,33.64
2023-03-17T14:00:37.708Z,32.45
2023-03-17T14:03:35.978Z,31.14
2023-03-17T14:06:06.728Z,32.20
2023-03-17T14:09:08.361Z,32.32
2023-03-17T14:11:41.554Z,32.46
2023-03-17T14:14:32.661Z,32.89
2023-03-17T14:17:35.499Z,32.82
2023-03-17T14:20:19.881Z,32.05
2023-03-17T14:22:56.675Z,32.36
2023-03-17T14:25:39.048Z,32.93
2023-03-17T14:28:15.999Z,32.80
2023-03-17T14:30:56.914Z,33.00
2023-03-17T14:33:34.682Z,33.49
2023-03-17T14:36:06.399Z,33.16
2023-03-17T14:38:37.645Z,33.64
2023-03-17T14:41:07.532Z,33.70
2023-03-17T14:43:36.757Z,33.55
2023-03-17T14:46:13.249Z,34.58
2023-03-17T14:48:43.741Z,34.59
2023-03-17T14:51:23.555Z,34.62
2023-03-17T14:53:53.874Z,34.41
2023-03-17T14:56:27.460Z,34.59
2023-03-17T14:59:06.484Z,35.15
2023-03-17T15:01:42.532Z,35.32
2023-03-17T15:04:18.061Z,35.39
2023-03-17T15:06:52.023Z,35.89
2023-03-17T15:09:29.038Z,35.48
2023-03-17T15:12:07.211Z,34.93
2023-03-17T15:14:38.996Z,34.89
2023-03-17T15:17:27.630Z,34.89
2023-03-17T15:20:00.466Z,35.14
2023-03-17T15:22:34.554Z,35.22
2023-03-17T15:25:15.004Z,36.05
2023-03-17T15:27:43.820Z,36.64
2023-03-17T15:30:12.798Z,36.53
2023-03-17T15:32:41.019Z,36.00
2023-03-17T15:35:13.676Z,36.03
2023-03-17T15:37:42.275Z,36.29
2023-03-17T15:40:11.280Z,35.81
2023-03-17T15:42:39.843Z,35.26
2023-03-17T15:45:08.875Z,35.33
2023-03-17T15:47:39.999Z,35.81
2023-03-17T15:50:25.674Z,36.42
2023-03-17T15:52:55.707Z,36.55
2023-03-17T15:55:31.298Z,36.92
2023-03-17T15:58:00.125Z,36.91
2023-03-17T16:00:30.206Z,36.45
2023-03-17T16:03:22.053Z,36.64
2023-03-17T16:05:50.423Z,36.80
2023-03-17T16:08:19.105Z,36.15
2023-03-17T16:10:47.552Z,36.23
2023-03-17T16:13:15.785Z,36.49
2023-03-17T16:15:50.310Z,36.71
2023-03-17T16:18:28.515Z,36.77
2023-03-17T16:20:56.919Z,37.00
2023-03-17T16:23:28.730Z,37.15
2023-03-17T16:26:13.693Z,37.22
2023-03-17T16:28:44.959Z,37.21
2023-03-17T16:31:19.944Z,37.37
2023-03-17T16:33:49.377Z,37.94
2023-03-17T16:36:19.517Z,38.03
2023-03-17T16:38:49.641Z,38.30
2023-03-17T16:41:24.445Z,38.12
2023-03-17T16:43:58.180Z,38.02
2023-03-17T16:46:26.558Z,38.15
2023-03-17T16:48:56.213Z,38.39
2023-03-17T16:51:25.060Z,38.40
2023-03-17T16:53:53.285Z,38.62
2023-03-17T16:56:23.078Z,38.70
2023-03-17T16:58:51.265Z,38.81
2023-03-17T17:01:26.155Z,39.13
2023-03-17T17:03:54.756Z,39.41
2023-03-17T17:06:23.981Z,39.66
2023-03-17T17:08:52.464Z,39.79
2023-03-17T17:11:20.886Z,39.73
2023-03-17T17:13:49.395Z,39.98
2023-03-17T17:16:32.162Z,39.92
2023-03-17T17:19:01.294Z,40.02
2023-03-17T17:21:31.149Z,40.39
2023-03-17T17:23:59.316Z,40.46
2023-03-17T17:26:27.491Z,40.21
2023-03-17T17:28:55.648Z,40.34
2023-03-17T17:31:23.691Z,40.62
2023-03-17T17:33:51.903Z,40.58
2023-03-17T17:36:19.929Z,40.69
2023-03-17T17:38:48.026Z,40.87
2023-03-17T17:41:17.105Z,41.18
2023-03-17T17:43:46.239Z,41.15
2023-03-17T17:46:21.316Z,41.31
2023-03-17T17:48:50.154Z,41.40
2023-03-17T17:51:18.279Z,41.55
2023-03-17T17:53:46.304Z,41.59
2023-03-17T17:56:16.801Z,41.86
2023-03-17T17:58:45.234Z,41.77
2023-03-17T18:01:16.863Z,41.94
2023-03-17T18:03:45.697Z,42.17
2023-03-17T18:06:14.256Z,42.12
2023-03-17T18:08:43.537Z,42.35
2023-03-17T18:11:12.322Z,42.54
2023-03-17T18:13:41.010Z,42.75
2023-03-17T18:16:15.054Z,42.97
2023-03-17T18:18:45.640Z,43.17
2023-03-17T18:21:14.078Z,43.34
2023-03-17T18:23:46.980Z,43.36
2023-03-17T18:26:16.791Z,43.48
2023-03-17T18:28:45.225Z,43.79
2023-03-17T18:31:18.803Z,43.99
2023-03-17T18:33:49.359Z,44.11
2023-03-17T18:36:18.968Z,44.08
2023-03-17T18:38:47.135Z,44.27
2023-03-17T18:41:15.424Z,44.52
2023-03-17T18:43:44.911Z,44.57
2023-03-17T18:46:13.438Z,44.77
2023-03-17T18:48:41.879Z,44.85
2023-03-17T18:51:10.341Z,44.80
2023-03-17T18:53:39.244Z,44.89
2023-03-17T18:56:07.762Z,44.96
2023-03-17T18:58:36.457Z,45.05
2023-03-17T19:01:04.876Z,45.27
2023-03-17T19:03:33.757Z,45.48
2023-03-17T19:06:13.916Z,45.55
2023-03-17T19:08:43.264Z,45.67
2023-03-17T19:11:13.934Z,45.82
2023-03-17T19:13:42.752Z,45.92
2023-03-17T19:16:11.584Z,46.05
2023-03-17T19:18:42.215Z,46.16
2023-03-17T19:21:11.958Z,46.54
2023-03-17T19:23:41.458Z,46.73
2023-03-17T19:26:10.450Z,46.88
2023-03-17T19:28:38.814Z,47.07
2023-03-17T19:31:07.480Z,47.32
2023-03-17T19:33:36.481Z,47.26
2023-03-17T19:36:11.603Z,47.41
2023-03-17T19:38:40.997Z,47.39
2023-03-17T19:41:09.316Z,47.61
2023-03-17T19:43:41.109Z,47.69
2023-03-17T19:46:11.407Z,47.72
2023-03-17T19:48:40.704Z,47.87
2023-03-17T19:51:09.404Z,48.03
2023-03-17T19:53:37.805Z,48.06
2023-03-17T19:56:06.730Z,48.17
2023-03-17T19:58:34.929Z,48.27
2023-03-17T20:01:04.878Z,48.46
2023-03-17T20:03:33.802Z,48.57
2023-03-17T20:06:06.058Z,48.61
2023-03-17T20:08:35.803Z,48.68
2023-03-17T20:11:05.996Z,48.81
2023-03-17T20:13:35.864Z,48.81
2023-03-17T20:16:05.904Z,48.94
2023-03-17T20:18:35.085Z,48.97
2023-03-17T20:21:11.669Z,49.22
2023-03-17T20:23:39.863Z,49.39
2023-03-17T20:26:09.280Z,49.45
2023-03-17T20:28:38.725Z,49.43
2023-03-17T20:31:08.046Z,49.51
2023-03-17T20:33:36.458Z,49.41
2023-03-17T20:36:05.074Z,49.54
2023-03-17T20:38:36.877Z,49.57
2023-03-17T20:41:12.548Z,49.65
2023-03-17T20:43:41.766Z,49.78
2023-03-17T20:46:18.823Z,49.90
2023-03-17T20:48:52.078Z,49.90
2023-03-17T20:51:20.430Z,49.90
2023-03-17T20:53:49.824Z,49.86
2023-03-17T20:56:20.349Z,49.82
2023-03-17T20:58:50.077Z,49.95
2023-03-17T21:01:21.182Z,49.96
2023-03-17T21:03:50.316Z,49.75
2023-03-17T21:06:18.895Z,49.97
2023-03-17T21:08:46.985Z,49.86
2023-03-17T21:11:17.654Z,50.00
2023-03-17T21:13:47.094Z,50.02
2023-03-17T21:16:19.029Z,50.17
2023-03-17T21:18:47.871Z,50.28
2023-03-17T21:21:17.236Z,50.43
2023-03-17T21:23:45.821Z,50.61
2023-03-17T21:26:14.983Z,50.78
2023-03-17T21:28:43.888Z,50.97
2023-03-17T21:31:12.884Z,51.16
2023-03-17T21:33:42.238Z,51.15
2023-03-17T21:36:11.180Z,51.50
2023-03-17T21:38:39.304Z,51.69
2023-03-17T21:41:22.391Z,51.79
2023-03-17T21:43:50.641Z,51.84
2023-03-17T21:46:18.777Z,51.55
2023-03-17T21:48:46.917Z,52.02
2023-03-17T21:51:15.194Z,52.32
2023-03-17T21:53:43.561Z,52.75
2023-03-17T21:56:12.628Z,53.05
2023-03-17T21:58:41.236Z,53.27
2023-03-17T22:01:09.398Z,53.75
2023-03-17T22:03:39.587Z,53.91
2023-03-17T22:06:09.856Z,53.98
2023-03-17T22:08:38.146Z,54.07
2023-03-17T22:11:08.097Z,54.25
2023-03-17T22:13:36.741Z,54.26
2023-03-17T22:16:05.387Z,54.39
2023-03-17T22:18:33.557Z,54.84
2023-03-17T22:21:01.821Z,55.04
2023-03-17T22:23:30.404Z,55.30
2023-03-17T22:25:58.715Z,55.38
2023-03-17T22:28:26.862Z,55.56
2023-03-17T22:30:54.949Z,55.76
2023-03-17T22:33:23.302Z,55.92
2023-03-17T22:35:51.489Z,56.01
2023-03-17T22:38:19.725Z,55.67
2023-03-17T22:40:47.791Z,55.83
2023-03-17T22:43:15.972Z,55.76
2023-03-17T22:45:44.057Z,56.08
2023-03-17T22:48:12.098Z,56.95
2023-03-17T22:50:42.631Z,56.93
2023-03-17T22:53:10.740Z,57.05
2023-03-17T22:55:39.066Z,57.33
2023-03-17T22:58:07.170Z,57.98
2023-03-17T23:00:36.235Z,58.35
2023-03-17T23:03:04.425Z,58.97
2023-03-17T23:05:33.010Z,58.80
2023-03-17T23:08:01.254Z,59.03
2023-03-17T23:10:29.801Z,58.94
2023-03-17T23:12:58.276Z,59.13
2023-03-17T23:15:26.695Z,59.18
2023-03-17T23:17:54.878Z,59.18
2023-03-17T23:20:23.213Z,59.34
2023-03-17T23:22:51.519Z,59.66
2023-03-17T23:25:20.133Z,60.09
2023-03-17T23:27:49.110Z,60.27
2023-03-17T23:30:18.065Z,60.26
2023-03-17T23:32:46.898Z,60.21
2023-03-17T23:35:15.965Z,60.51
2023-03-17T23:37:44.054Z,60.71
2023-03-17T23:40:16.060Z,60.67
2023-03-17T23:42:46.085Z,60.43
2023-03-17T23:45:18.167Z,60.55
2023-03-17T23:47:47.397Z,60.55
2023-03-17T23:50:16.140Z,61.44
2023-03-17T23:52:45.031Z,61.21
2023-03-17T23:55:13.233Z,61.25
2023-03-17T23:57:41.998Z,61.74
